createdAt,value
2022-12-01T00:01:18.515Z,0.44
2022-12-01T00:03:45.880Z,0.39
2022-12-01T00:06:15.714Z,0.46
2022-12-01T00:08:43.919Z,0.57
2022-12-01T00:11:12.061Z,0.52
2022-12-01T00:13:40.708Z,0.34
2022-12-01T00:16:12.081Z,0.16
2022-12-01T00:18:39.506Z,0.26
2022-12-01T00:21:14.045Z,0.32
2022-12-01T00:23:43.874Z,0.24
2022-12-01T00:26:11.667Z,0.11
2022-12-01T00:28:40.350Z,0.20
2022-12-01T00:31:08.833Z,0.07
2022-12-01T00:33:36.404Z,0.05
2022-12-01T00:36:05.617Z,0.10
2022-12-01T00:38:33.146Z,0.20
2022-12-01T00:41:00.904Z,0.19
2022-12-01T00:43:28.221Z,0.24
2022-12-01T00:45:57.624Z,0.12
2022-12-01T00:48:25.517Z,0.10
2022-12-01T00:50:54.965Z,0.25
2022-12-01T00:53:22.327Z,0.19
2022-12-01T00:55:50.231Z,0.08
2022-12-01T00:58:17.633Z,0.27
2022-12-01T01:00:45.260Z,0.51
2022-12-01T01:03:13.908Z,0.60
2022-12-01T01:05:43.175Z,0.50
2022-12-01T01:08:11.993Z,0.36
2022-12-01T01:10:40.655Z,0.42
2022-12-01T01:13:08.063Z,0.50
2022-12-01T01:15:36.019Z,0.37
2022-12-01T01:18:03.869Z,0.17
2022-12-01T01:20:34.930Z,0.20
2022-12-01T01:23:02.371Z,0.07
2022-12-01T01:25:32.093Z,0.05
2022-12-01T01:27:59.285Z,0.18
2022-12-01T01:30:27.031Z,0.15
2022-12-01T01:32:54.356Z,0.04
2022-12-01T01:35:21.986Z,-0.13
2022-12-01T01:37:50.701Z,-0.01
2022-12-01T01:40:18.982Z,0.06
2022-12-01T01:42:46.464Z,0.11
2022-12-01T01:45:20.747Z,-0.09
2022-12-01T01:47:50.697Z,0.01
2022-12-01T01:50:22.329Z,0.20
2022-12-01T01:52:55.851Z,0.15
2022-12-01T01:55:23.935Z,-0.08
2022-12-01T01:57:51.578Z,0.02
2022-12-01T02:00:20.468Z,-0.10
2022-12-01T02:02:49.318Z,0.02
2022-12-01T02:05:20.595Z,0.28
2022-12-01T02:07:48.622Z,0.22
2022-12-01T02:10:18.928Z,0.32
2022-12-01T02:13:05.834Z,0.20
2022-12-01T02:15:41.230Z,-0.02
2022-12-01T02:18:23.176Z,0.06
2022-12-01T02:21:28.431Z,0.02
2022-12-01T02:24:37.299Z,0.20
2022-12-01T02:27:12.800Z,0.23
2022-12-01T02:30:09.177Z,-0.02
2022-12-01T02:32:49.409Z,-0.11
2022-12-01T02:35:24.544Z,-0.27
2022-12-01T02:38:03.576Z,-0.21
2022-12-01T02:40:36.893Z,-0.16
2022-12-01T02:43:13.076Z,0.15
2022-12-01T02:45:47.869Z,0.26
2022-12-01T02:48:22.794Z,0.22
2022-12-01T02:50:52.824Z,0.06
2022-12-01T02:53:22.577Z,-0.02
2022-12-01T02:55:52.199Z,-0.13
2022-12-01T02:58:20.891Z,-0.14
2022-12-01T03:01:10.788Z,0.14
2022-12-01T03:03:55.989Z,0.18
2022-12-01T03:06:33.851Z,0.38
2022-12-01T03:09:10.073Z,0.41
2022-12-01T03:11:44.522Z,0.36
2022-12-01T03:14:23.485Z,0.45
2022-12-01T03:16:53.135Z,0.44
2022-12-01T03:19:29.689Z,0.66
2022-12-01T03:22:04.725Z,0.69
2022-12-01T03:24:34.960Z,0.79
2022-12-01T03:27:03.884Z,0.74
2022-12-01T03:29:34.972Z,0.70
2022-12-01T03:32:07.372Z,0.67
2022-12-01T03:34:41.241Z,0.70
2022-12-01T03:37:10.502Z,0.76
2022-12-01T03:39:40.001Z,0.70
2022-12-01T03:42:13.516Z,0.75
2022-12-01T03:44:46.859Z,0.90
2022-12-01T03:47:18.359Z,0.93
2022-12-01T03:49:50.884Z,1.15
2022-12-01T03:52:30.419Z,1.20
2022-12-01T03:55:07.516Z,1.22
2022-12-01T03:57:41.317Z,1.26
2022-12-01T04:00:10.702Z,1.34
2022-12-01T04:02:38.454Z,1.33
2022-12-01T04:05:08.432Z,1.40
2022-12-01T04:07:35.859Z,1.41
2022-12-01T04:10:04.252Z,1.50
2022-12-01T04:12:31.520Z,1.42
2022-12-01T04:15:00.775Z,1.58
2022-12-01T04:17:29.123Z,1.59
2022-12-01T04:19:56.926Z,1.65
2022-12-01T04:22:26.650Z,1.59
2022-12-01T04:24:54.338Z,1.74
2022-12-01T04:27:21.828Z,1.80
2022-12-01T04:29:50.152Z,1.70
2022-12-01T04:32:17.634Z,1.83
2022-12-01T04:34:45.515Z,1.87
2022-12-01T04:37:12.906Z,1.85
2022-12-01T04:39:42.534Z,1.86
2022-12-01T04:42:10.638Z,1.83
2022-12-01T04:44:38.956Z,1.88
2022-12-01T04:47:07.053Z,1.86
2022-12-01T04:49:35.384Z,1.94
2022-12-01T04:52:02.871Z,1.95
2022-12-01T04:54:30.663Z,2.01
2022-12-01T04:56:59.283Z,1.99
2022-12-01T04:59:27.370Z,1.90
2022-12-01T05:01:54.704Z,1.81
2022-12-01T05:04:22.798Z,1.79
2022-12-01T05:06:50.359Z,1.75
2022-12-01T05:09:18.181Z,1.76
2022-12-01T05:11:45.507Z,1.78
2022-12-01T05:14:14.847Z,1.76
2022-12-01T05:16:42.593Z,1.79
2022-12-01T05:19:10.467Z,1.79
2022-12-01T05:21:37.935Z,1.83
2022-12-01T05:24:06.644Z,1.93
2022-12-01T05:26:34.103Z,1.91
2022-12-01T05:29:02.555Z,2.03
2022-12-01T05:31:31.624Z,1.85
2022-12-01T05:34:00.249Z,1.73
2022-12-01T05:36:27.839Z,1.80
2022-12-01T05:38:55.890Z,1.87
2022-12-01T05:41:23.153Z,2.05
2022-12-01T05:43:51.084Z,1.90
2022-12-01T05:46:18.592Z,1.85
2022-12-01T05:48:48.078Z,1.81
2022-12-01T05:51:16.915Z,1.79
2022-12-01T05:53:44.923Z,1.82
2022-12-01T05:56:12.417Z,1.86
2022-12-01T05:58:40.126Z,1.79
2022-12-01T06:01:07.724Z,1.97
2022-12-01T06:03:35.329Z,1.98
2022-12-01T06:06:04.900Z,1.95
2022-12-01T06:08:32.371Z,1.88
2022-12-01T06:11:00.277Z,1.93
2022-12-01T06:13:30.955Z,1.97
2022-12-01T06:15:59.969Z,2.08
2022-12-01T06:18:28.200Z,2.10
2022-12-01T06:20:56.006Z,2.12
2022-12-01T06:23:30.022Z,2.00
2022-12-01T06:25:58.442Z,2.08
2022-12-01T06:28:25.661Z,2.06
2022-12-01T06:30:57.831Z,2.09
2022-12-01T06:33:28.663Z,2.05
2022-12-01T06:35:59.793Z,2.15
2022-12-01T06:38:31.619Z,2.14
2022-12-01T06:41:00.189Z,2.03
2022-12-01T06:43:27.941Z,2.08
2022-12-01T06:46:01.307Z,2.07
2022-12-01T06:48:29.761Z,2.09
2022-12-01T06:50:58.202Z,2.20
2022-12-01T06:53:25.745Z,2.16
2022-12-01T06:55:55.123Z,2.17
2022-12-01T06:58:22.825Z,2.09
2022-12-01T07:00:52.415Z,2.19
2022-12-01T07:03:19.989Z,2.22
2022-12-01T07:05:55.380Z,2.17
2022-12-01T07:08:22.716Z,2.06
2022-12-01T07:10:59.399Z,1.99
2022-12-01T07:13:32.853Z,1.98
2022-12-01T07:16:02.426Z,2.11
2022-12-01T07:18:29.931Z,2.31
2022-12-01T07:21:00.213Z,2.29
2022-12-01T07:23:27.993Z,2.24
2022-12-01T07:26:01.328Z,2.29
2022-12-01T07:28:28.815Z,2.23
2022-12-01T07:31:02.130Z,2.23
2022-12-01T07:33:29.896Z,2.44
2022-12-01T07:35:58.334Z,2.47
2022-12-01T07:38:27.493Z,2.43
2022-12-01T07:40:55.114Z,2.48
2022-12-01T07:43:23.913Z,2.52
2022-12-01T07:45:51.705Z,2.55
2022-12-01T07:48:19.050Z,2.83
2022-12-01T07:50:47.035Z,2.78
2022-12-01T07:53:20.609Z,2.71
2022-12-01T07:55:49.424Z,2.81
2022-12-01T07:58:16.608Z,2.75
2022-12-01T08:00:46.237Z,2.73
2022-12-01T08:03:13.918Z,2.74
2022-12-01T08:05:41.885Z,2.60
2022-12-01T08:08:09.563Z,2.63
2022-12-01T08:10:37.751Z,2.79
2022-12-01T08:13:05.347Z,2.64
2022-12-01T08:15:33.260Z,2.74
2022-12-01T08:18:02.550Z,2.78
2022-12-01T08:20:30.401Z,2.73
2022-12-01T08:23:00.500Z,2.81
2022-12-01T08:25:28.751Z,2.86
2022-12-01T08:27:56.844Z,2.80
2022-12-01T08:30:24.926Z,2.88
2022-12-01T08:32:53.718Z,2.97
2022-12-01T08:35:23.355Z,2.88
2022-12-01T08:37:52.079Z,2.95
2022-12-01T08:40:19.988Z,3.00
2022-12-01T08:42:47.328Z,2.92
2022-12-01T08:45:15.435Z,3.22
2022-12-01T08:47:42.723Z,3.03
2022-12-01T08:50:10.645Z,2.96
2022-12-01T08:52:39.519Z,2.99
2022-12-01T08:55:10.749Z,2.96
2022-12-01T08:57:38.037Z,2.93
2022-12-01T09:00:06.978Z,2.85
2022-12-01T09:02:34.805Z,2.91
2022-12-01T09:05:03.569Z,2.94
2022-12-01T09:07:31.354Z,3.05
2022-12-01T09:10:00.681Z,3.10
2022-12-01T09:12:29.545Z,3.08
2022-12-01T09:14:57.302Z,3.15
2022-12-01T09:17:24.666Z,3.12
2022-12-01T09:19:52.703Z,3.12
2022-12-01T09:22:20.158Z,3.21
2022-12-01T09:24:47.941Z,3.26
2022-12-01T09:27:16.593Z,3.16
2022-12-01T09:29:44.295Z,3.20
2022-12-01T09:32:11.514Z,3.02
2022-12-01T09:34:39.201Z,3.18
2022-12-01T09:37:06.504Z,3.17
2022-12-01T09:39:34.157Z,3.20
2022-12-01T09:42:09.026Z,3.29
2022-12-01T09:44:43.966Z,3.40
2022-12-01T09:47:18.081Z,3.35
2022-12-01T09:49:53.009Z,3.23
2022-12-01T09:52:21.898Z,3.27
2022-12-01T09:54:49.969Z,3.41
2022-12-01T09:57:28.502Z,3.45
2022-12-01T09:59:59.249Z,3.43
2022-12-01T10:02:33.286Z,3.40
2022-12-01T10:05:04.959Z,3.32
2022-12-01T10:07:36.822Z,3.30
2022-12-01T10:10:12.079Z,3.42
2022-12-01T10:12:43.441Z,3.33
2022-12-01T10:15:30.072Z,3.46
2022-12-01T10:18:07.971Z,3.51
2022-12-01T10:20:44.978Z,3.69
2022-12-01T10:23:31.558Z,3.68
2022-12-01T10:26:03.741Z,3.60
2022-12-01T10:28:53.954Z,3.52
2022-12-01T10:31:31.293Z,3.41
2022-12-01T10:34:01.693Z,3.35
2022-12-01T10:36:32.930Z,3.38
2022-12-01T10:39:02.020Z,3.37
2022-12-01T10:41:33.988Z,3.46
2022-12-01T10:44:04.970Z,3.47
2022-12-01T10:46:41.045Z,3.58
2022-12-01T10:49:10.439Z,3.59
2022-12-01T10:51:51.365Z,3.52
2022-12-01T10:54:19.860Z,3.63
2022-12-01T10:56:49.795Z,3.55
2022-12-01T10:59:26.937Z,3.58
2022-12-01T11:01:58.347Z,3.62
2022-12-01T11:04:36.380Z,3.61
2022-12-01T11:07:04.555Z,3.47
2022-12-01T11:09:32.497Z,3.41
2022-12-01T11:12:15.896Z,3.52
2022-12-01T11:14:47.432Z,3.58
2022-12-01T11:17:29.610Z,3.58
2022-12-01T11:19:57.315Z,3.69
2022-12-01T11:22:27.746Z,3.69
2022-12-01T11:25:01.510Z,3.65
2022-12-01T11:27:32.813Z,3.86
2022-12-01T11:30:02.607Z,3.81
2022-12-01T11:32:35.174Z,3.58
2022-12-01T11:35:06.282Z,3.56
2022-12-01T11:37:39.295Z,3.46
2022-12-01T11:40:13.683Z,3.53
2022-12-01T11:42:42.308Z,3.58
2022-12-01T11:45:27.840Z,3.75
2022-12-01T11:48:02.720Z,3.79
2022-12-01T11:50:32.431Z,3.75
2022-12-01T11:53:00.415Z,3.75
2022-12-01T11:55:31.636Z,3.76
2022-12-01T11:58:02.806Z,3.87
2022-12-01T12:00:41.980Z,3.87
2022-12-01T12:03:21.293Z,4.09
2022-12-01T12:06:31.853Z,4.02
2022-12-01T12:09:03.424Z,3.85
2022-12-01T12:11:43.480Z,3.84
2022-12-01T12:14:29.967Z,3.89
2022-12-01T12:17:18.998Z,3.91
2022-12-01T12:20:27.836Z,3.64
2022-12-01T12:23:05.953Z,3.45
2022-12-01T12:25:47.312Z,3.31
2022-12-01T12:28:27.629Z,3.09
2022-12-01T12:31:08.245Z,3.04
2022-12-01T12:33:53.375Z,3.08
2022-12-01T12:36:32.639Z,3.15
2022-12-01T12:39:16.355Z,3.04
2022-12-01T12:41:46.352Z,3.21
2022-12-01T12:44:32.366Z,3.33
2022-12-01T12:47:09.981Z,3.19
2022-12-01T12:49:44.587Z,3.13
2022-12-01T12:52:18.727Z,3.02
2022-12-01T12:54:50.727Z,3.02
2022-12-01T12:57:29.552Z,3.05
2022-12-01T13:00:02.284Z,2.88
2022-12-01T13:02:36.415Z,2.90
2022-12-01T13:05:09.998Z,2.90
2022-12-01T13:07:44.976Z,3.06
2022-12-01T13:10:22.281Z,3.07
2022-12-01T13:12:56.888Z,3.03
2022-12-01T13:15:25.548Z,2.87
2022-12-01T13:17:57.588Z,2.99
2022-12-01T13:20:28.197Z,3.09
2022-12-01T13:23:00.117Z,3.04
2022-12-01T13:25:31.243Z,2.92
2022-12-01T13:28:02.490Z,2.73
2022-12-01T13:30:30.121Z,2.79
2022-12-01T13:33:00.840Z,2.83
2022-12-01T13:35:31.255Z,3.01
2022-12-01T13:41:14.913Z,2.64
2022-12-01T13:43:53.344Z,2.52
2022-12-01T13:46:26.027Z,2.39
2022-12-01T13:48:55.608Z,2.33
2022-12-01T13:51:23.278Z,2.40
2022-12-01T13:53:58.492Z,2.56
2022-12-01T13:56:39.481Z,2.56
2022-12-01T13:59:40.687Z,2.48
2022-12-01T14:02:16.497Z,2.51
2022-12-01T14:04:44.721Z,2.54
2022-12-01T14:07:35.323Z,2.54
2022-12-01T14:10:25.952Z,2.50
2022-12-01T14:12:58.083Z,2.54
2022-12-01T14:15:36.009Z,2.67
2022-12-01T14:18:20.164Z,2.62
2022-12-01T14:20:49.444Z,2.66
2022-12-01T14:23:23.404Z,2.75
2022-12-01T14:26:01.797Z,2.83
2022-12-01T14:29:19.677Z,2.79
2022-12-01T14:32:19.824Z,2.97
2022-12-01T14:34:52.780Z,2.90
2022-12-01T14:37:25.016Z,2.73
2022-12-01T14:39:57.681Z,2.57
2022-12-01T14:42:33.370Z,2.40
2022-12-01T14:45:04.068Z,2.17
2022-12-01T14:47:42.668Z,2.24
2022-12-01T14:52:47.323Z,2.42
2022-12-01T14:55:18.724Z,2.41
2022-12-01T14:57:49.725Z,2.37
2022-12-01T15:00:20.067Z,2.43
2022-12-01T15:02:54.014Z,2.63
2022-12-01T15:05:24.649Z,2.45
2022-12-01T15:08:06.707Z,2.47
2022-12-01T15:10:50.355Z,2.61
2022-12-01T15:13:23.239Z,2.62
2022-12-01T15:15:52.567Z,2.79
2022-12-01T15:18:29.043Z,2.79
2022-12-01T15:21:00.727Z,2.64
2022-12-01T15:23:28.826Z,2.60
2022-12-01T15:25:56.344Z,2.67
2022-12-01T15:28:31.517Z,2.89
2022-12-01T15:31:00.435Z,2.73
2022-12-01T15:33:36.765Z,2.76
2022-12-01T15:36:06.944Z,2.70
2022-12-01T15:38:37.053Z,2.61
2022-12-01T15:41:28.629Z,2.56
2022-12-01T15:43:56.803Z,2.34
2022-12-01T15:46:31.198Z,2.41
2022-12-01T15:49:18.418Z,2.30
2022-12-01T15:51:46.951Z,2.34
2022-12-01T15:54:20.965Z,2.31
2022-12-01T15:56:53.409Z,2.49
2022-12-01T15:59:33.383Z,2.69
2022-12-01T16:02:07.094Z,2.82
2022-12-01T16:04:36.985Z,2.93
2022-12-01T16:07:07.233Z,3.06
2022-12-01T16:09:36.724Z,3.15
2022-12-01T16:12:20.853Z,3.16
2022-12-01T16:14:54.674Z,3.17
2022-12-01T16:17:23.193Z,3.03
2022-12-01T16:20:16.682Z,2.79
2022-12-01T16:22:46.177Z,2.65
2022-12-01T16:25:18.974Z,2.52
2022-12-01T16:27:54.679Z,2.44
2022-12-01T16:30:25.066Z,2.51
2022-12-01T16:33:01.356Z,2.59
2022-12-01T16:35:32.003Z,2.56
2022-12-01T16:38:00.544Z,2.63
2022-12-01T16:40:28.340Z,2.66
2022-12-01T16:42:55.789Z,2.70
2022-12-01T16:45:24.112Z,2.81
2022-12-01T16:47:51.515Z,2.69
2022-12-01T16:50:21.696Z,2.66
2022-12-01T16:52:50.342Z,2.59
2022-12-01T16:55:36.445Z,2.58
2022-12-01T16:58:03.745Z,2.58
2022-12-01T17:00:31.858Z,2.59
2022-12-01T17:02:59.994Z,2.70
2022-12-01T17:05:27.899Z,2.89
2022-12-01T17:07:56.768Z,2.85
2022-12-01T17:10:24.858Z,2.92
2022-12-01T17:12:52.448Z,3.02
2022-12-01T17:15:20.484Z,3.01
2022-12-01T17:17:47.842Z,3.01
2022-12-01T17:20:16.120Z,2.98
2022-12-01T17:22:43.784Z,3.05
2022-12-01T17:25:13.023Z,2.90
2022-12-01T17:27:40.434Z,2.89
2022-12-01T17:30:12.167Z,2.80
2022-12-01T17:32:39.475Z,2.90
2022-12-01T17:35:08.163Z,2.89
2022-12-01T17:37:35.665Z,2.97
2022-12-01T17:40:03.858Z,2.96
2022-12-01T17:42:33.554Z,2.82
2022-12-01T17:45:01.643Z,2.75
2022-12-01T17:47:29.442Z,2.88
2022-12-01T17:49:57.360Z,3.09
2022-12-01T17:52:28.330Z,3.04
2022-12-01T17:54:56.689Z,3.03
2022-12-01T17:57:24.524Z,3.07
2022-12-01T17:59:53.781Z,3.10
2022-12-01T18:02:21.309Z,3.03
2022-12-01T18:04:49.923Z,3.04
2022-12-01T18:07:17.771Z,3.06
2022-12-01T18:09:45.854Z,3.10
2022-12-01T18:12:13.609Z,3.16
2022-12-01T18:14:41.717Z,3.13
2022-12-01T18:17:10.819Z,3.23
2022-12-01T18:19:38.933Z,3.09
2022-12-01T18:22:06.491Z,3.23
2022-12-01T18:24:34.769Z,3.25
2022-12-01T18:27:02.094Z,3.16
2022-12-01T18:29:29.932Z,3.12
2022-12-01T18:31:58.844Z,3.25
2022-12-01T18:34:28.820Z,3.10
2022-12-01T18:36:56.715Z,2.94
2022-12-01T18:39:24.650Z,2.90
2022-12-01T18:41:51.986Z,2.82
2022-12-01T18:44:19.603Z,2.60
2022-12-01T18:46:47.554Z,2.54
2022-12-01T18:49:16.035Z,2.54
2022-12-01T18:51:45.064Z,2.85
2022-12-01T18:54:14.565Z,2.84
2022-12-01T18:56:42.504Z,2.76
2022-12-01T18:59:11.712Z,2.92
2022-12-01T19:01:41.302Z,3.01
2022-12-01T19:04:10.117Z,2.91
2022-12-01T19:06:39.452Z,2.88
2022-12-01T19:09:10.911Z,2.82
2022-12-01T19:11:39.526Z,2.80
2022-12-01T19:14:08.279Z,2.87
2022-12-01T19:16:35.774Z,2.64
2022-12-01T19:19:04.161Z,2.75
2022-12-01T19:21:31.613Z,2.76
2022-12-01T19:23:59.489Z,2.58
2022-12-01T19:26:28.302Z,2.44
2022-12-01T19:28:56.092Z,2.56
2022-12-01T19:31:24.889Z,2.66
2022-12-01T19:33:54.004Z,2.80
2022-12-01T19:36:23.453Z,2.85
2022-12-01T19:38:51.780Z,2.76
2022-12-01T19:41:20.247Z,2.83
2022-12-01T19:43:49.531Z,2.64
2022-12-01T19:46:19.281Z,2.69
2022-12-01T19:48:47.873Z,2.58
2022-12-01T19:51:19.765Z,2.53
2022-12-01T19:53:47.875Z,2.69
2022-12-01T19:56:15.372Z,2.63
2022-12-01T19:58:43.694Z,2.61
2022-12-01T20:01:14.448Z,2.70
2022-12-01T20:03:44.668Z,2.70
2022-12-01T20:06:14.126Z,2.62
2022-12-01T20:08:42.628Z,2.58
2022-12-01T20:11:10.660Z,2.65
2022-12-01T20:13:40.827Z,2.72
2022-12-01T20:16:10.609Z,2.85
2022-12-01T20:18:40.985Z,2.93
2022-12-01T20:21:10.739Z,2.75
2022-12-01T20:23:39.115Z,2.64
2022-12-01T20:26:07.877Z,2.59
2022-12-01T20:28:37.147Z,2.48
2022-12-01T20:31:09.850Z,2.31
2022-12-01T20:33:41.245Z,2.53
2022-12-01T20:36:09.379Z,2.55
2022-12-01T20:38:38.270Z,2.46
2022-12-01T20:41:07.136Z,2.50
2022-12-01T20:43:35.848Z,2.39
2022-12-01T20:46:06.612Z,2.36
2022-12-01T20:48:34.726Z,2.46
2022-12-01T20:51:05.771Z,2.52
2022-12-01T20:53:34.697Z,2.62
2022-12-01T20:56:03.477Z,2.72
2022-12-01T20:58:37.034Z,2.63
2022-12-01T21:01:08.396Z,2.83
2022-12-01T21:03:38.128Z,2.84
2022-12-01T21:06:07.543Z,2.75
2022-12-01T21:08:37.458Z,2.60
2022-12-01T21:11:06.405Z,2.47
2022-12-01T21:13:35.273Z,2.35
2022-12-01T21:16:07.020Z,2.28
2022-12-01T21:18:42.362Z,2.22
2022-12-01T21:21:21.464Z,2.24
2022-12-01T21:24:00.185Z,2.23
2022-12-01T21:26:27.455Z,2.40
2022-12-01T21:28:59.064Z,2.42
2022-12-01T21:31:26.920Z,2.31
2022-12-01T21:33:56.180Z,2.21
2022-12-01T21:36:29.024Z,2.43
2022-12-01T21:39:12.893Z,2.29
2022-12-01T21:41:40.436Z,2.30
2022-12-01T21:44:13.710Z,2.26
2022-12-01T21:46:40.829Z,2.27
2022-12-01T21:49:18.094Z,2.22
2022-12-01T21:51:47.890Z,2.20
2022-12-01T21:54:19.726Z,2.33
2022-12-01T21:56:48.618Z,2.22
2022-12-01T21:59:19.586Z,2.06
2022-12-01T22:01:48.176Z,1.82
2022-12-01T22:04:18.907Z,2.01
2022-12-01T22:06:49.830Z,2.11
2022-12-01T22:09:24.723Z,2.15
2022-12-01T22:11:54.592Z,2.05
2022-12-01T22:14:24.236Z,1.92
2022-12-01T22:16:56.838Z,1.78
2022-12-01T22:19:30.855Z,1.84
2022-12-01T22:22:03.537Z,1.87
2022-12-01T22:24:40.454Z,1.79
2022-12-01T22:27:29.977Z,1.68
2022-12-01T22:30:00.592Z,1.70
2022-12-01T22:32:41.286Z,1.74
2022-12-01T22:35:28.581Z,1.87
2022-12-01T22:38:13.708Z,1.86
2022-12-01T22:40:48.496Z,1.90
2022-12-01T22:43:41.654Z,1.79
2022-12-01T22:46:23.534Z,1.96
2022-12-01T22:48:53.059Z,2.03
2022-12-01T22:51:37.283Z,2.14
2022-12-01T22:54:28.966Z,2.24
2022-12-01T22:57:11.803Z,1.93
2022-12-01T22:59:42.129Z,1.87
2022-12-01T23:02:20.524Z,2.02
2022-12-01T23:04:51.023Z,2.05
2022-12-01T23:07:38.379Z,2.14
2022-12-01T23:10:17.932Z,2.20
2022-12-01T23:12:47.675Z,2.19
2022-12-01T23:15:32.419Z,2.13
2022-12-01T23:18:11.835Z,2.11
2022-12-01T23:20:40.737Z,2.03
2022-12-01T23:23:14.799Z,2.11
2022-12-01T23:25:44.748Z,2.39
2022-12-01T23:28:15.533Z,2.26
2022-12-01T23:30:51.185Z,2.26
2022-12-01T23:33:21.486Z,2.00
2022-12-01T23:35:53.814Z,1.77
2022-12-01T23:38:23.988Z,1.72
2022-12-01T23:41:00.575Z,1.76
2022-12-01T23:43:31.953Z,1.60
2022-12-01T23:46:04.309Z,1.58
2022-12-01T23:48:36.488Z,1.43
2022-12-01T23:51:05.038Z,1.56
2022-12-01T23:53:33.567Z,1.63
2022-12-01T23:56:05.373Z,1.64
2022-12-01T23:58:34.602Z,1.79
